createdAt,value
2022-08-17T00:00:43.547Z,3.40
2022-08-17T00:03:22.356Z,3.67
2022-08-17T00:05:56.888Z,3.10
2022-08-17T00:08:38.653Z,2.83
2022-08-17T00:11:10.333Z,2.85
2022-08-17T00:13:44.073Z,3.07
2022-08-17T00:16:55.348Z,2.80
2022-08-17T00:19:24.115Z,3.00
2022-08-17T00:22:31.890Z,3.78
2022-08-17T00:24:45.726Z,3.40
2022-08-17T00:27:15.002Z,3.37
2022-08-17T00:29:45.566Z,3.30
2022-08-17T00:33:13.838Z,3.30
2022-08-17T00:35:09.401Z,3.47
2022-08-17T00:37:38.733Z,3.83
2022-08-17T00:40:08.931Z,3.87
2022-08-17T00:42:38.484Z,3.33
2022-08-17T00:45:11.086Z,3.58
2022-08-17T00:47:40.603Z,3.58
2022-08-17T00:50:13.072Z,3.35
2022-08-17T00:52:55.828Z,3.77
2022-08-17T00:55:26.280Z,3.28
2022-08-17T00:57:59.591Z,3.80
2022-08-17T01:00:42.455Z,3.78
2022-08-17T01:03:16.914Z,3.75
2022-08-17T01:05:46.174Z,3.90
2022-08-17T01:08:17.158Z,3.72
2022-08-17T01:11:00.186Z,3.70
2022-08-17T01:13:40.336Z,4.18
2022-08-17T01:16:16.189Z,3.88
2022-08-17T01:18:47.478Z,3.87
2022-08-17T01:21:47.850Z,3.75
2022-08-17T01:24:17.683Z,3.92
2022-08-17T01:26:47.970Z,4.10
2022-08-17T01:29:18.922Z,4.28
2022-08-17T01:31:53.564Z,3.93
2022-08-17T01:34:24.936Z,4.18
2022-08-17T01:37:08.870Z,4.07
2022-08-17T01:40:20.351Z,4.18
2022-08-17T01:42:52.974Z,4.35
2022-08-17T01:45:26.644Z,3.90
2022-08-17T01:47:56.797Z,3.30
2022-08-17T01:50:34.953Z,3.53
2022-08-17T01:53:31.060Z,3.10
2022-08-17T01:56:03.387Z,3.85
2022-08-17T01:58:32.905Z,3.67
2022-08-17T02:01:02.973Z,3.63
2022-08-17T02:03:33.176Z,3.75
2022-08-17T02:06:02.553Z,3.65
2022-08-17T02:08:38.865Z,3.63
2022-08-17T02:11:25.331Z,3.80
2022-08-17T02:13:57.809Z,3.72
2022-08-17T02:16:37.047Z,4.18
2022-08-17T02:19:14.289Z,4.35
2022-08-17T02:21:45.079Z,3.95
2022-08-17T02:24:17.636Z,3.60
2022-08-17T02:27:07.069Z,3.47
2022-08-17T02:29:36.309Z,3.60
2022-08-17T02:32:06.222Z,3.75
2022-08-17T02:34:35.909Z,3.95
2022-08-17T02:37:05.967Z,3.60
2022-08-17T02:39:35.302Z,3.80
2022-08-17T02:42:05.470Z,3.90
2022-08-17T02:44:38.858Z,3.90
2022-08-17T02:47:09.422Z,3.85
2022-08-17T02:49:38.870Z,4.03
2022-08-17T02:52:09.451Z,4.05
2022-08-17T02:54:42.259Z,4.13
2022-08-17T02:57:13.360Z,3.95
2022-08-17T02:59:48.812Z,3.80
2022-08-17T03:02:18.746Z,3.37
2022-08-17T03:04:48.094Z,3.88
2022-08-17T03:07:17.556Z,3.63
2022-08-17T03:09:46.899Z,4.30
2022-08-17T03:12:18.044Z,3.85
2022-08-17T03:14:47.278Z,3.83
2022-08-17T03:17:17.114Z,3.83
2022-08-17T03:19:47.128Z,3.95
2022-08-17T03:22:34.679Z,3.63
2022-08-17T03:25:10.522Z,3.75
2022-08-17T03:27:42.071Z,3.97
2022-08-17T03:30:15.911Z,3.70
2022-08-17T03:32:48.127Z,3.40
2022-08-17T03:35:19.037Z,3.65
2022-08-17T03:38:00.061Z,4.10
2022-08-17T03:40:36.985Z,4.00
2022-08-17T03:43:20.946Z,4.07
2022-08-17T03:46:02.848Z,3.92
2022-08-17T03:48:45.420Z,5.15
2022-08-17T03:51:40.040Z,4.10
2022-08-17T03:54:22.292Z,4.20
2022-08-17T03:57:02.177Z,4.25
2022-08-17T03:59:31.819Z,3.97
2022-08-17T04:02:04.813Z,4.40
2022-08-17T04:04:34.060Z,4.20
2022-08-17T04:07:03.540Z,4.70
2022-08-17T04:09:32.888Z,3.97
2022-08-17T04:12:04.833Z,4.45
2022-08-17T04:14:39.235Z,4.55
2022-08-17T04:17:24.360Z,3.67
2022-08-17T04:19:53.744Z,4.43
2022-08-17T04:22:31.994Z,4.07
2022-08-17T04:25:20.421Z,4.47
2022-08-17T04:27:50.120Z,4.05
2022-08-17T04:30:19.554Z,4.28
2022-08-17T04:33:20.854Z,3.90
2022-08-17T04:35:53.250Z,3.92
2022-08-17T04:38:24.999Z,3.95
2022-08-17T04:41:07.125Z,4.10
2022-08-17T04:43:37.060Z,5.50
2022-08-17T04:46:12.084Z,4.53
2022-08-17T04:48:45.808Z,4.78
2022-08-17T04:51:16.672Z,3.90
2022-08-17T04:53:55.016Z,4.72
2022-08-17T04:56:25.962Z,4.03
2022-08-17T04:58:57.519Z,4.00
2022-08-17T05:01:28.494Z,3.83
2022-08-17T05:03:59.791Z,4.22
2022-08-17T05:06:49.700Z,3.50
2022-08-17T05:09:20.209Z,3.90
2022-08-17T05:11:49.718Z,6.60
2022-08-17T05:14:18.983Z,4.22
2022-08-17T05:16:49.431Z,4.50
2022-08-17T05:19:18.708Z,3.55
2022-08-17T05:21:47.967Z,3.80
2022-08-17T05:24:43.083Z,3.90
2022-08-17T05:27:06.951Z,4.30
2022-08-17T05:29:36.538Z,3.75
2022-08-17T05:32:38.288Z,4.38
2022-08-17T05:35:02.764Z,4.32
2022-08-17T05:37:32.061Z,4.03
2022-08-17T05:40:01.518Z,4.55
2022-08-17T05:42:30.837Z,3.80
2022-08-17T05:45:00.958Z,4.00
2022-08-17T05:47:30.442Z,3.63
2022-08-17T05:50:00.186Z,4.33
2022-08-17T05:52:36.513Z,3.53
2022-08-17T05:55:17.129Z,3.45
2022-08-17T05:57:56.261Z,3.75
2022-08-17T06:00:32.041Z,4.45
2022-08-17T06:03:39.986Z,3.80
2022-08-17T06:06:31.193Z,3.63
2022-08-17T06:09:33.459Z,3.65
2022-08-17T06:12:22.097Z,3.92
2022-08-17T06:15:03.926Z,4.05
2022-08-17T06:17:33.681Z,3.70
2022-08-17T06:20:08.055Z,3.63
2022-08-17T06:22:40.633Z,3.47
2022-08-17T06:25:47.045Z,3.80
2022-08-17T06:28:19.918Z,3.42
2022-08-17T06:30:59.855Z,3.60
2022-08-17T06:33:35.033Z,3.22
2022-08-17T06:36:16.328Z,3.95
2022-08-17T06:39:01.962Z,4.05
2022-08-17T06:41:49.957Z,3.50
2022-08-17T06:44:43.210Z,3.37
2022-08-17T06:47:16.357Z,3.47
2022-08-17T06:50:08.059Z,3.78
2022-08-17T06:52:46.588Z,3.70
2022-08-17T06:55:26.387Z,3.22
2022-08-17T06:58:02.132Z,3.70
2022-08-17T07:00:40.804Z,3.72
2022-08-17T07:03:19.135Z,3.90
2022-08-17T07:05:51.609Z,3.83
2022-08-17T07:08:35.246Z,3.67
2022-08-17T07:11:08.214Z,3.60
2022-08-17T07:14:17.117Z,3.53
2022-08-17T07:16:52.137Z,3.33
2022-08-17T07:19:24.885Z,3.58
2022-08-17T07:21:58.579Z,4.13
2022-08-17T07:24:39.240Z,3.73
2022-08-17T07:27:23.681Z,3.65
2022-08-17T07:29:56.683Z,3.40
2022-08-17T07:32:31.662Z,3.03
2022-08-17T07:35:11.875Z,3.45
2022-08-17T07:38:05.354Z,3.20
2022-08-17T07:40:58.104Z,3.10
2022-08-17T07:43:32.947Z,3.15
2022-08-17T07:46:26.457Z,3.42
2022-08-17T07:49:03.286Z,3.10
2022-08-17T07:51:36.595Z,3.20
2022-08-17T07:54:24.232Z,3.15
2022-08-17T07:57:07.249Z,2.70
2022-08-17T07:59:41.784Z,2.60
2022-08-17T08:02:38.340Z,2.40
2022-08-17T08:05:48.577Z,3.00
2022-08-17T08:08:35.551Z,3.45
2022-08-17T08:11:15.483Z,2.90
2022-08-17T08:13:46.226Z,3.20
2022-08-17T08:16:17.485Z,3.10
2022-08-17T08:18:54.152Z,2.77
2022-08-17T08:21:31.820Z,2.67
2022-08-17T08:24:30.097Z,3.25
2022-08-17T08:27:38.602Z,3.20
2022-08-17T08:30:07.800Z,3.28
2022-08-17T08:33:12.597Z,3.00
2022-08-17T08:35:58.583Z,2.90
2022-08-17T08:38:48.382Z,3.22
2022-08-17T08:41:33.381Z,3.58
2022-08-17T08:44:12.964Z,2.75
2022-08-17T08:46:54.363Z,3.00
2022-08-17T08:50:03.276Z,2.90
2022-08-17T08:53:06.894Z,3.08
2022-08-17T08:55:54.928Z,3.08
2022-08-17T08:59:08.887Z,3.17
2022-08-17T09:02:19.802Z,3.13
2022-08-17T09:05:14.483Z,2.88
2022-08-17T09:08:21.856Z,2.75
2022-08-17T09:11:02.823Z,2.60
2022-08-17T09:13:43.769Z,2.88
2022-08-17T09:16:20.422Z,2.70
2022-08-17T09:19:00.840Z,3.08
2022-08-17T09:21:55.304Z,2.95
2022-08-17T09:24:39.254Z,2.50
2022-08-17T09:27:18.465Z,2.72
2022-08-17T09:29:53.320Z,2.77
2022-08-17T09:32:28.501Z,2.90
2022-08-17T09:35:02.046Z,2.88
2022-08-17T09:38:05.446Z,2.95
2022-08-17T09:40:46.357Z,2.53
2022-08-17T09:43:34.075Z,3.03
2022-08-17T09:46:08.163Z,2.88
2022-08-17T09:48:45.880Z,2.63
2022-08-17T09:51:23.588Z,2.53
2022-08-17T09:53:53.119Z,2.60
2022-08-17T09:56:46.365Z,3.10
2022-08-17T09:59:38.448Z,3.30
2022-08-17T10:02:31.341Z,2.83
2022-08-17T10:05:34.459Z,3.05
2022-08-17T10:08:32.458Z,2.50
2022-08-17T10:11:54.479Z,3.30
2022-08-17T10:14:36.835Z,3.13
2022-08-17T10:17:25.510Z,2.90
2022-08-17T10:20:15.023Z,3.10
2022-08-17T10:23:03.210Z,3.47
2022-08-17T10:25:55.036Z,3.20
2022-08-17T10:28:29.692Z,3.08
2022-08-17T10:31:33.098Z,3.00
2022-08-17T10:34:18.800Z,2.80
2022-08-17T10:36:58.269Z,3.00
2022-08-17T10:39:50.501Z,2.90
2022-08-17T10:42:33.740Z,3.00
2022-08-17T10:45:09.149Z,3.25
2022-08-17T10:48:06.863Z,3.05
2022-08-17T10:51:07.539Z,3.33
2022-08-17T10:53:40.757Z,3.13
2022-08-17T10:56:17.561Z,3.17
2022-08-17T10:59:05.862Z,2.90
2022-08-17T11:01:35.519Z,2.85
2022-08-17T11:04:10.156Z,3.13
2022-08-17T11:07:02.280Z,2.97
2022-08-17T11:10:05.825Z,2.80
2022-08-17T11:12:44.415Z,2.90
2022-08-17T11:15:24.651Z,3.17
2022-08-17T11:18:12.688Z,2.65
2022-08-17T11:21:08.621Z,3.03
2022-08-17T11:23:57.377Z,2.88
2022-08-17T11:26:33.685Z,2.90
2022-08-17T11:29:09.712Z,2.85
2022-08-17T11:31:42.676Z,2.90
2022-08-17T11:34:17.013Z,3.53
2022-08-17T11:36:56.538Z,3.90
2022-08-17T11:39:35.490Z,3.55
2022-08-17T11:42:09.028Z,2.85
2022-08-17T11:45:32.547Z,2.63
2022-08-17T11:48:38.218Z,2.60
2022-08-17T11:51:36.312Z,2.72
2022-08-17T11:54:33.430Z,2.55
2022-08-17T11:57:29.443Z,2.53
2022-08-17T12:00:07.462Z,2.50
2022-08-17T12:02:47.490Z,2.57
2022-08-17T12:05:17.630Z,2.70
2022-08-17T12:07:58.699Z,2.75
2022-08-17T12:10:32.022Z,2.80
2022-08-17T12:13:02.801Z,2.45
2022-08-17T12:15:38.878Z,2.70
2022-08-17T12:18:08.261Z,2.35
2022-08-17T12:20:43.195Z,2.97
2022-08-17T12:23:19.353Z,2.80
2022-08-17T12:26:06.195Z,3.20
2022-08-17T12:28:38.772Z,2.30
2022-08-17T12:31:35.335Z,2.90
2022-08-17T12:34:06.405Z,2.75
2022-08-17T12:36:36.208Z,2.70
2022-08-17T12:39:14.387Z,2.30
2022-08-17T12:41:57.355Z,2.53
2022-08-17T12:44:35.355Z,2.22
2022-08-17T12:47:20.989Z,2.33
2022-08-17T12:49:53.232Z,2.95
2022-08-17T12:52:24.696Z,2.40
2022-08-17T12:55:00.455Z,2.10
2022-08-17T12:57:51.414Z,2.75
2022-08-17T13:00:34.829Z,2.70
2022-08-17T13:03:15.712Z,3.17
2022-08-17T13:05:55.069Z,2.55
2022-08-17T13:08:31.104Z,2.53
2022-08-17T13:11:06.853Z,3.00
2022-08-17T13:13:39.093Z,2.50
2022-08-17T13:16:12.746Z,2.70
2022-08-17T13:18:47.177Z,2.65
2022-08-17T13:21:22.373Z,2.90
2022-08-17T13:24:06.031Z,2.75
2022-08-17T13:26:38.764Z,2.65
2022-08-17T13:29:10.129Z,2.65
2022-08-17T13:31:52.916Z,2.90
2022-08-17T13:34:28.892Z,2.70
2022-08-17T13:37:27.020Z,2.60
2022-08-17T13:40:09.372Z,2.88
2022-08-17T13:42:48.098Z,3.45
2022-08-17T13:45:35.428Z,2.60
2022-08-17T13:48:14.408Z,2.90
2022-08-17T13:50:46.442Z,2.70
2022-08-17T13:53:25.366Z,2.70
2022-08-17T13:56:03.510Z,2.47
2022-08-17T13:58:41.136Z,2.65
2022-08-17T14:01:32.287Z,2.50
2022-08-17T14:04:03.159Z,2.72
2022-08-17T14:06:55.095Z,2.70
2022-08-17T14:09:33.557Z,2.40
2022-08-17T14:12:08.696Z,2.20
2022-08-17T14:14:37.902Z,2.70
2022-08-17T14:17:07.911Z,2.92
2022-08-17T14:19:38.405Z,2.88
2022-08-17T14:22:10.084Z,2.63
2022-08-17T14:24:44.843Z,2.50
2022-08-17T14:27:18.095Z,2.70
2022-08-17T14:29:47.744Z,2.63
2022-08-17T14:32:28.865Z,2.50
2022-08-17T14:34:59.390Z,2.55
2022-08-17T14:37:31.515Z,2.65
2022-08-17T14:40:03.071Z,3.00
2022-08-17T14:42:35.554Z,2.90
2022-08-17T14:45:06.459Z,2.80
2022-08-17T14:47:55.694Z,2.40
2022-08-17T14:50:25.092Z,3.05
2022-08-17T14:52:56.207Z,2.60
2022-08-17T14:55:27.333Z,2.63
2022-08-17T14:57:56.558Z,2.47
2022-08-17T15:00:26.873Z,2.67
2022-08-17T15:02:59.022Z,2.60
2022-08-17T15:05:34.907Z,2.87
2022-08-17T15:08:05.628Z,2.60
2022-08-17T15:10:35.728Z,2.50
2022-08-17T15:13:05.044Z,2.80
2022-08-17T15:15:34.614Z,2.60
2022-08-17T15:18:04.061Z,2.60
2022-08-17T15:20:33.882Z,2.85
2022-08-17T15:23:03.133Z,3.10
2022-08-17T15:25:34.412Z,3.10
2022-08-17T15:28:04.401Z,3.10
2022-08-17T15:30:34.423Z,2.43
2022-08-17T15:33:04.788Z,2.83
2022-08-17T15:35:36.158Z,2.90
2022-08-17T15:38:12.022Z,2.58
2022-08-17T15:40:46.201Z,2.60
2022-08-17T15:43:22.043Z,3.17
2022-08-17T15:46:12.701Z,2.50
2022-08-17T15:48:44.727Z,2.70
2022-08-17T15:51:19.597Z,2.67
2022-08-17T15:53:54.403Z,2.70
2022-08-17T15:56:23.848Z,3.10
2022-08-17T15:58:53.123Z,2.70
2022-08-17T16:03:01.793Z,2.70
2022-08-17T16:04:29.610Z,2.70
2022-08-17T16:07:00.052Z,2.60
2022-08-17T16:09:29.575Z,2.60
2022-08-17T16:11:58.821Z,2.50
2022-08-17T16:14:33.515Z,2.58
2022-08-17T16:17:04.728Z,3.00
2022-08-17T16:19:35.291Z,2.75
2022-08-17T16:22:04.938Z,2.70
2022-08-17T16:24:34.897Z,2.90
2022-08-17T16:27:04.201Z,3.00
2022-08-17T16:29:42.620Z,2.63
2022-08-17T16:32:19.271Z,2.60
2022-08-17T16:35:04.668Z,2.70
2022-08-17T16:37:34.269Z,3.00
2022-08-17T16:40:04.428Z,2.70
2022-08-17T16:42:36.033Z,2.70
2022-08-17T16:45:08.261Z,2.40
2022-08-17T16:47:37.492Z,2.53
2022-08-17T16:50:09.334Z,2.60
2022-08-17T16:52:38.810Z,2.75
2022-08-17T16:55:13.398Z,2.67
2022-08-17T16:57:47.276Z,2.60
2022-08-17T17:00:21.139Z,2.70
2022-08-17T17:02:51.817Z,2.78
2022-08-17T17:05:39.646Z,2.70
2022-08-17T17:08:17.763Z,3.00
2022-08-17T17:10:55.944Z,2.70
2022-08-17T17:13:33.757Z,2.97
2022-08-17T17:16:17.314Z,3.20
2022-08-17T17:19:07.048Z,2.85
2022-08-17T17:21:56.146Z,2.78
2022-08-17T17:24:32.436Z,2.63
2022-08-17T17:27:16.198Z,2.40
2022-08-17T17:30:07.623Z,2.65
2022-08-17T17:32:41.887Z,2.85
2022-08-17T17:35:17.241Z,3.72
2022-08-17T17:37:47.426Z,5.88
2022-08-17T17:40:27.573Z,4.67
2022-08-17T17:43:09.465Z,4.20
2022-08-17T17:46:07.578Z,3.88
2022-08-17T17:48:49.091Z,3.80
2022-08-17T17:52:07.134Z,3.72
2022-08-17T17:54:52.324Z,4.20
2022-08-17T17:57:28.473Z,4.63
2022-08-17T18:00:13.749Z,5.40
2022-08-17T18:02:53.111Z,5.50
2022-08-17T18:05:53.997Z,4.43
2022-08-17T18:08:41.635Z,4.30
2022-08-17T18:11:27.209Z,5.53
2022-08-17T18:14:17.317Z,5.82
2022-08-17T18:16:48.162Z,4.18
2022-08-17T18:19:20.861Z,4.00
2022-08-17T18:21:52.779Z,3.40
2022-08-17T18:24:37.955Z,3.75
2022-08-17T18:27:21.029Z,3.17
2022-08-17T18:29:51.062Z,3.92
2022-08-17T18:32:27.068Z,4.35
2022-08-17T18:35:00.241Z,3.93
2022-08-17T18:37:37.705Z,3.70
2022-08-17T18:40:19.527Z,3.55
2022-08-17T18:43:09.179Z,3.97
2022-08-17T18:45:48.440Z,3.75
2022-08-17T18:48:26.697Z,3.47
2022-08-17T18:50:58.917Z,3.33
2022-08-17T18:53:41.293Z,3.92
2022-08-17T18:56:30.540Z,4.03
2022-08-17T18:59:27.101Z,3.50
2022-08-17T19:02:01.917Z,4.20
2022-08-17T19:04:44.574Z,4.00
2022-08-17T19:07:27.920Z,3.90
2022-08-17T19:10:08.372Z,3.90
2022-08-17T19:12:43.199Z,4.15
2022-08-17T19:15:14.920Z,4.33
2022-08-17T19:17:55.479Z,4.22
2022-08-17T19:20:31.589Z,5.05
2022-08-17T19:23:33.218Z,4.90
2022-08-17T19:26:06.381Z,4.70
2022-08-17T19:28:59.974Z,4.47
2022-08-17T19:31:31.828Z,5.43
2022-08-17T19:34:02.938Z,5.43
2022-08-17T19:36:53.760Z,4.80
2022-08-17T19:39:38.075Z,4.53
2022-08-17T19:42:15.845Z,4.53
2022-08-17T19:45:15.053Z,5.35
2022-08-17T19:48:03.428Z,5.88
2022-08-17T19:50:49.760Z,6.07
2022-08-17T19:54:01.750Z,5.50
2022-08-17T19:56:42.541Z,5.83
2022-08-17T19:59:37.280Z,4.55
2022-08-17T20:02:45.071Z,4.05
2022-08-17T20:05:17.731Z,3.55
2022-08-17T20:08:08.057Z,3.67
2022-08-17T20:10:45.264Z,4.00
2022-08-17T20:13:33.605Z,3.25
2022-08-17T20:16:04.571Z,4.10
2022-08-17T20:19:01.120Z,4.10
2022-08-17T20:21:38.143Z,3.63
2022-08-17T20:24:17.806Z,3.57
2022-08-17T20:27:00.987Z,3.35
2022-08-17T20:29:39.573Z,3.22
2022-08-17T20:32:31.679Z,2.90
2022-08-17T20:35:19.364Z,3.60
2022-08-17T20:38:11.023Z,3.60
2022-08-17T20:40:41.560Z,3.90
2022-08-17T20:43:32.605Z,4.45
2022-08-17T20:46:07.571Z,5.00
2022-08-17T20:48:41.105Z,4.60
2022-08-17T20:51:29.893Z,4.87
2022-08-17T20:54:04.220Z,4.70
2022-08-17T20:56:46.678Z,4.82
2022-08-17T20:59:25.771Z,5.25
2022-08-17T21:02:18.419Z,4.65
2022-08-17T21:04:54.556Z,5.30
2022-08-17T21:07:43.202Z,5.13
2022-08-17T21:10:28.126Z,5.38
2022-08-17T21:13:23.227Z,5.75
2022-08-17T21:16:06.811Z,4.88
2022-08-17T21:18:47.657Z,6.17
2022-08-17T21:21:32.149Z,5.55
2022-08-17T21:24:16.324Z,5.63
2022-08-17T21:27:03.033Z,6.00
2022-08-17T21:29:33.956Z,5.68
2022-08-17T21:32:06.625Z,5.53
2022-08-17T21:34:44.013Z,5.25
2022-08-17T21:37:25.441Z,5.63
2022-08-17T21:40:03.368Z,5.13
2022-08-17T21:42:35.047Z,5.40
2022-08-17T21:45:20.543Z,5.50
2022-08-17T21:48:11.101Z,5.15
2022-08-17T21:50:41.731Z,4.88
2022-08-17T21:53:15.164Z,4.68
2022-08-17T21:55:44.529Z,5.53
2022-08-17T21:58:33.624Z,5.80
2022-08-17T22:01:34.361Z,5.38
2022-08-17T22:04:15.277Z,5.47
2022-08-17T22:06:52.270Z,4.55
2022-08-17T22:09:32.767Z,4.93
2022-08-17T22:12:20.935Z,4.60
2022-08-17T22:15:10.563Z,5.15
2022-08-17T22:17:44.992Z,4.32
2022-08-17T22:20:18.689Z,5.13
2022-08-17T22:23:00.158Z,4.57
2022-08-17T22:25:31.165Z,3.93
2022-08-17T22:28:01.603Z,4.65
2022-08-17T22:30:33.617Z,4.10
2022-08-17T22:33:05.087Z,4.18
2022-08-17T22:35:45.638Z,4.35
2022-08-17T22:38:20.728Z,4.10
2022-08-17T22:40:55.694Z,3.97
2022-08-17T22:43:28.680Z,4.65
2022-08-17T22:46:01.968Z,4.43
2022-08-17T22:48:32.642Z,4.53
2022-08-17T22:51:14.707Z,4.33
2022-08-17T22:54:03.810Z,3.83
2022-08-17T22:56:45.639Z,3.85
2022-08-17T22:59:24.062Z,4.13
2022-08-17T23:02:20.488Z,4.43
2022-08-17T23:05:00.190Z,3.60
2022-08-17T23:07:29.401Z,4.80
2022-08-17T23:10:00.318Z,4.40
2022-08-17T23:12:29.844Z,4.85
2022-08-17T23:15:03.956Z,4.18
2022-08-17T23:17:37.464Z,4.30
2022-08-17T23:20:09.532Z,4.38
2022-08-17T23:22:51.431Z,3.90
2022-08-17T23:25:28.791Z,4.30
2022-08-17T23:28:01.670Z,4.47
2022-08-17T23:30:32.880Z,4.10
2022-08-17T23:33:04.257Z,4.00
2022-08-17T23:35:40.461Z,4.13
2022-08-17T23:38:11.730Z,4.43
2022-08-17T23:40:41.085Z,4.43
2022-08-17T23:43:24.655Z,4.67
2022-08-17T23:45:59.822Z,3.88
2022-08-17T23:48:36.010Z,4.18
2022-08-17T23:51:09.182Z,4.70
2022-08-17T23:53:40.337Z,4.55
2022-08-17T23:56:11.487Z,4.20
2022-08-17T23:58:45.403Z,4.90
